Time;durP1;ratioP1;P1;durP2;ratioP2;P2;SDS_P1;SDS_P2;PMS_P1;PMS_P2;Temp;Humidity;BMP_temperature;BMP_pressure;BME280_temperature;BME280_humidity;BME280_pressure;Samples;Min_cycle;Max_cycle;Signal;HPM_P1;HPM_P2
2020/12/19 00:00:16;;;;;;;1.88;0.98;;;17.50;37.70;;;;;;5101400;28;20028;-73
2020/12/19 00:02:42;;;;;;;2.72;1.30;;;17.60;38.40;;;;;;5098754;28;20028;-74
2020/12/19 00:05:09;;;;;;;4.13;0.95;;;17.50;38.00;;;;;;5118359;28;20024;-74
2020/12/19 00:07:35;;;;;;;2.03;1.00;;;17.40;35.10;;;;;;5112221;28;20043;-73
2020/12/19 00:10:03;;;;;;;1.98;1.00;;;17.30;35.90;;;;;;5098966;28;20028;-71
2020/12/19 00:12:30;;;;;;;1.25;0.80;;;17.40;37.20;;;;;;5094834;28;20359;-74
2020/12/19 00:14:57;;;;;;;1.25;0.98;;;17.40;38.80;;;;;;5097920;28;20099;-74
2020/12/19 00:17:23;;;;;;;1.73;1.40;;;17.20;36.00;;;;;;5104739;28;20024;-73
2020/12/19 00:19:50;;;;;;;1.45;1.00;;;17.30;38.20;;;;;;5096729;28;20076;-73
2020/12/19 00:22:16;;;;;;;2.25;1.23;;;17.40;40.90;;;;;;5093990;28;20104;-73
2020/12/19 00:24:42;;;;;;;3.42;1.02;;;17.40;40.10;;;;;;5095567;28;20111;-73
2020/12/19 00:27:10;;;;;;;1.35;0.90;;;17.30;40.00;;;;;;5105079;28;20361;-73
2020/12/19 00:29:38;;;;;;;2.05;0.93;;;17.30;40.60;;;;;;5092557;28;20366;-74
2020/12/19 00:32:05;;;;;;;4.38;1.10;;;17.10;40.80;;;;;;5095928;28;20028;-74
2020/12/19 00:34:32;;;;;;;2.13;1.30;;;17.00;40.80;;;;;;5093428;28;20032;-74
2020/12/19 00:37:00;;;;;;;2.80;1.17;;;16.80;40.70;;;;;;5098267;28;20030;-74
2020/12/19 00:39:28;;;;;;;5.05;1.35;;;16.70;41.00;;;;;;5088931;28;20023;-74
2020/12/19 00:41:54;;;;;;;1.63;1.33;;;16.60;41.50;;;;;;5097511;28;20044;-74
2020/12/19 00:44:21;;;;;;;3.50;1.20;;;16.40;42.10;;;;;;5100967;28;20024;-74
2020/12/19 00:46:51;;;;;;;10.15;1.77;;;16.30;42.50;;;;;;5090832;28;20040;-74
2020/12/19 00:49:18;;;;;;;2.97;1.63;;;16.10;42.60;;;;;;5100654;28;20034;-74
2020/12/19 00:51:44;;;;;;;3.45;1.63;;;15.90;42.60;;;;;;5097001;28;20119;-75
2020/12/19 00:54:11;;;;;;;4.03;1.48;;;15.70;42.80;;;;;;5106828;28;20020;-76
2020/12/19 00:56:37;;;;;;;5.63;1.67;;;15.50;42.60;;;;;;5098930;28;20350;-74
2020/12/19 00:59:04;;;;;;;2.20;1.90;;;15.30;43.40;;;;;;5084979;28;20016;-74
2020/12/19 01:01:31;;;;;;;1.73;1.45;;;15.00;43.90;;;;;;5081526;28;20054;-75
2020/12/19 01:04:01;;;;;;;2.78;1.40;;;14.80;44.00;;;;;;5092628;28;20077;-75
2020/12/19 01:06:29;;;;;;;5.88;2.20;;;14.70;44.30;;;;;;5092050;28;20468;-74
2020/12/19 01:09:01;;;;;;;6.10;1.80;;;14.50;44.20;;;;;;5089006;28;20032;-75
2020/12/19 01:11:29;;;;;;;3.80;1.17;;;14.40;44.50;;;;;;5093450;28;20043;-75
2020/12/19 01:13:56;;;;;;;4.57;1.95;;;14.30;44.80;;;;;;5100547;28;20496;-75
2020/12/19 01:16:26;;;;;;;9.52;2.25;;;14.30;44.70;;;;;;5087826;28;20024;-74
2020/12/19 01:18:54;;;;;;;7.15;2.08;;;14.20;44.90;;;;;;5089892;28;20051;-74
2020/12/19 01:21:24;;;;;;;5.28;2.17;;;14.00;45.50;;;;;;5090930;28;20028;-73
2020/12/19 01:23:51;;;;;;;4.32;2.20;;;13.80;45.90;;;;;;5085214;28;20085;-74
2020/12/19 01:26:18;;;;;;;7.82;2.28;;;13.70;45.80;;;;;;5089695;28;20031;-75
2020/12/19 01:28:46;;;;;;;5.03;2.17;;;13.60;45.70;;;;;;5086376;28;20423;-74
2020/12/19 01:31:14;;;;;;;4.95;2.58;;;13.50;46.50;;;;;;5083531;28;20357;-74
2020/12/19 01:33:41;;;;;;;6.20;2.88;;;13.40;46.80;;;;;;5090956;28;20022;-74
2020/12/19 01:36:15;;;;;;;7.43;3.42;;;13.30;47.10;;;;;;5087578;28;20024;-74
2020/12/19 01:38:42;;;;;;;5.03;2.55;;;13.10;46.80;;;;;;5091433;28;20081;-74
2020/12/19 01:41:09;;;;;;;7.15;2.85;;;13.10;46.50;;;;;;5089166;28;20048;-73
2020/12/19 01:43:49;;;;;;;6.25;3.60;;;13.00;47.20;;;;;;5095631;28;20055;-73
2020/12/19 01:46:46;;;;;;;3.80;2.90;;;12.90;46.60;;;;;;5090791;28;20024;-74
2020/12/19 01:49:14;;;;;;;7.97;3.35;;;12.90;46.90;;;;;;5091554;28;20423;-74
2020/12/19 01:51:40;;;;;;;5.82;3.55;;;12.80;47.00;;;;;;5094700;28;20123;-74
2020/12/19 01:54:08;;;;;;;7.05;3.33;;;12.80;47.30;;;;;;5092512;28;20070;-74
2020/12/19 01:56:48;;;;;;;8.32;2.95;;;12.70;47.30;;;;;;5095577;28;20028;-73
2020/12/19 01:59:16;;;;;;;12.43;3.15;;;12.60;48.00;;;;;;5089400;28;20159;-74
2020/12/19 02:01:54;;;;;;;5.60;3.10;;;12.40;48.80;;;;;;5090614;28;20016;-73
2020/12/19 02:04:25;;;;;;;10.02;2.90;;;12.40;47.90;;;;;;5092814;28;20473;-73
2020/12/19 02:06:53;;;;;;;9.65;2.83;;;12.40;48.20;;;;;;5090853;28;20024;-74
2020/12/19 02:09:23;;;;;;;6.10;2.90;;;12.30;49.50;;;;;;5101542;28;20031;-74
2020/12/19 02:11:50;;;;;;;7.88;3.92;;;12.10;49.80;;;;;;5083242;28;20369;-74
2020/12/19 02:14:16;;;;;;;11.05;3.42;;;12.20;49.10;;;;;;5095162;28;20020;-73
2020/12/19 02:17:03;;;;;;;6.65;3.05;;;12.30;49.90;;;;;;5088499;28;20020;-74
2020/12/19 02:19:31;;;;;;;6.65;3.90;;;12.40;49.80;;;;;;5095798;28;20023;-74
2020/12/19 02:21:58;;;;;;;9.25;3.38;;;12.40;49.80;;;;;;5102008;28;20031;-74
2020/12/19 02:24:25;;;;;;;8.68;3.65;;;12.30;50.90;;;;;;5092675;28;20043;-73
2020/12/19 02:26:54;;;;;;;13.75;4.60;;;12.40;51.60;;;;;;5099557;28;20032;-74
2020/12/19 02:29:22;;;;;;;16.35;3.78;;;12.50;51.60;;;;;;5096658;28;20028;-73
2020/12/19 02:31:49;;;;;;;8.90;3.53;;;12.50;51.60;;;;;;5092016;28;20024;-73
2020/12/19 02:34:16;;;;;;;9.57;3.70;;;12.60;51.60;;;;;;5087799;28;20115;-74
2020/12/19 02:36:43;;;;;;;11.13;5.07;;;12.70;51.60;;;;;;5093919;28;20164;-73
2020/12/19 02:39:09;;;;;;;10.38;4.75;;;12.70;51.80;;;;;;5088842;28;20040;-73
2020/12/19 02:41:41;;;;;;;12.05;3.95;;;12.60;51.50;;;;;;5088228;28;20099;-73
2020/12/19 02:44:11;;;;;;;8.07;3.10;;;12.60;51.30;;;;;;5097452;28;20039;-73
2020/12/19 02:46:38;;;;;;;8.88;3.00;;;12.40;50.90;;;;;;5091579;28;20039;-73
2020/12/19 02:49:06;;;;;;;6.25;3.03;;;12.50;51.20;;;;;;5096853;28;20023;-73
2020/12/19 02:51:32;;;;;;;9.10;4.10;;;12.60;51.50;;;;;;5092405;28;20024;-73
2020/12/19 02:53:59;;;;;;;6.40;2.53;;;12.50;50.70;;;;;;5097441;28;20028;-73
2020/12/19 02:56:25;;;;;;;5.72;2.85;;;12.30;51.40;;;;;;5093168;28;20028;-73
2020/12/19 02:58:51;;;;;;;9.95;5.50;;;12.10;50.80;;;;;;5087980;28;20024;-74
2020/12/19 03:01:18;;;;;;;9.48;4.10;;;12.10;51.20;;;;;;5093164;28;20024;-75
2020/12/19 03:03:44;;;;;;;11.68;4.28;;;12.10;51.20;;;;;;5089370;28;20060;-76
2020/12/19 03:06:11;;;;;;;7.97;3.47;;;12.10;51.10;;;;;;5095802;28;20031;-73
2020/12/19 03:08:37;;;;;;;6.80;3.50;;;11.90;51.90;;;;;;5095439;28;20035;-74
2020/12/19 03:11:04;;;;;;;6.03;3.60;;;11.70;52.00;;;;;;5085948;28;20026;-73
2020/12/19 03:13:30;;;;;;;7.35;3.78;;;11.60;52.20;;;;;;5093149;28;20047;-75
2020/12/19 03:15:56;;;;;;;6.10;3.42;;;11.50;52.30;;;;;;5092474;28;20031;-74
2020/12/19 03:18:23;;;;;;;9.88;5.18;;;11.50;52.70;;;;;;5094087;28;20032;-73
2020/12/19 03:20:49;;;;;;;6.88;4.05;;;11.50;51.80;;;;;;5094513;28;20099;-74
2020/12/19 03:23:15;;;;;;;9.25;4.20;;;11.60;51.80;;;;;;5094571;28;20032;-75
2020/12/19 03:25:42;;;;;;;4.88;3.35;;;11.80;53.10;;;;;;5096234;28;20496;-74
2020/12/19 03:28:08;;;;;;;10.82;5.47;;;11.90;52.70;;;;;;5109144;28;20496;-75
2020/12/19 03:30:35;;;;;;;8.85;4.03;;;11.80;52.40;;;;;;5099671;28;20065;-75
2020/12/19 03:33:01;;;;;;;7.18;3.58;;;12.00;52.00;;;;;;5089717;28;20115;-73
2020/12/19 03:35:28;;;;;;;11.00;3.30;;;11.90;52.40;;;;;;5097533;28;20031;-74
2020/12/19 03:37:54;;;;;;;9.25;3.75;;;12.00;52.30;;;;;;5095722;28;20496;-75
2020/12/19 03:40:21;;;;;;;10.35;4.07;;;11.90;52.70;;;;;;5090151;28;20029;-75
2020/12/19 03:42:47;;;;;;;8.23;3.38;;;12.10;53.00;;;;;;5094342;28;20445;-75
2020/12/19 03:45:14;;;;;;;7.55;3.60;;;12.10;52.80;;;;;;5096294;28;20521;-74
2020/12/19 03:47:40;;;;;;;12.00;4.28;;;12.00;52.80;;;;;;5092903;28;20032;-75
2020/12/19 03:50:07;;;;;;;6.03;3.10;;;11.90;52.50;;;;;;5094841;28;20051;-74
2020/12/19 03:52:34;;;;;;;7.25;3.97;;;11.70;52.60;;;;;;5096099;28;20351;-74
2020/12/19 03:55:00;;;;;;;6.97;3.30;;;11.60;52.80;;;;;;5095858;28;20388;-74
2020/12/19 03:57:26;;;;;;;4.20;2.92;;;11.60;53.10;;;;;;5088381;28;20028;-74
2020/12/19 03:59:53;;;;;;;7.35;3.13;;;11.80;53.10;;;;;;5094773;28;20051;-74
2020/12/19 04:02:19;;;;;;;8.68;2.90;;;11.70;52.60;;;;;;5095090;28;20441;-74
2020/12/19 04:04:46;;;;;;;4.40;2.75;;;11.70;52.20;;;;;;5096277;28;20357;-74
2020/12/19 04:07:12;;;;;;;4.97;3.08;;;11.50;52.60;;;;;;5087420;28;20096;-74
2020/12/19 04:09:39;;;;;;;6.82;2.70;;;11.50;52.90;;;;;;5093400;28;20031;-74
2020/12/19 04:12:06;;;;;;;3.65;2.30;;;11.60;52.90;;;;;;5090176;28;20046;-74
2020/12/19 04:14:39;;;;;;;5.03;2.72;;;11.70;52.70;;;;;;5085125;28;20035;-74
2020/12/19 04:17:11;;;;;;;5.43;3.05;;;11.60;52.20;;;;;;5095567;28;20049;-73
2020/12/19 04:19:39;;;;;;;3.75;2.30;;;11.40;52.60;;;;;;5092655;28;20027;-73
2020/12/19 04:22:05;;;;;;;3.55;2.58;;;11.50;52.60;;;;;;5092626;28;20033;-74
2020/12/19 04:24:32;;;;;;;7.43;3.15;;;11.60;52.30;;;;;;5086017;28;20032;-73
2020/12/19 04:26:59;;;;;;;3.78;2.80;;;11.50;52.70;;;;;;5096205;28;20035;-73
2020/12/19 04:29:26;;;;;;;2.88;2.65;;;11.60;52.50;;;;;;5095079;28;20116;-74
2020/12/19 04:31:54;;;;;;;4.50;2.80;;;11.50;52.50;;;;;;5093146;28;20024;-75
2020/12/19 04:34:20;;;;;;;4.47;3.28;;;11.40;52.80;;;;;;5100258;28;20024;-75
2020/12/19 04:36:47;;;;;;;4.93;2.58;;;11.40;52.60;;;;;;5098437;28;20024;-74
2020/12/19 04:39:13;;;;;;;5.53;2.80;;;11.30;52.90;;;;;;5097042;28;20385;-74
2020/12/19 04:41:40;;;;;;;7.18;3.45;;;11.30;53.00;;;;;;5094598;28;20028;-74
2020/12/19 04:44:06;;;;;;;8.65;3.72;;;11.10;52.70;;;;;;5089245;28;20055;-74
2020/12/19 04:46:37;;;;;;;3.45;2.75;;;10.90;53.00;;;;;;5094925;28;20467;-74
2020/12/19 04:49:04;;;;;;;3.38;2.67;;;10.70;53.50;;;;;;5095484;28;20459;-74
2020/12/19 04:51:32;;;;;;;3.72;2.92;;;10.60;54.00;;;;;;5083531;28;20029;-74
2020/12/19 04:53:59;;;;;;;6.78;3.00;;;10.40;54.60;;;;;;5093774;28;20031;-74
2020/12/19 04:56:27;;;;;;;6.25;2.80;;;10.30;54.60;;;;;;5096092;28;20032;-74
2020/12/19 04:58:55;;;;;;;5.60;3.00;;;10.30;54.70;;;;;;5096335;28;20017;-75
2020/12/19 05:01:22;;;;;;;4.78;2.67;;;10.40;54.40;;;;;;5094869;28;20027;-74
2020/12/19 05:03:50;;;;;;;3.03;2.33;;;10.30;54.30;;;;;;5096322;28;20335;-74
2020/12/19 05:06:25;;;;;;;9.88;2.72;;;10.30;54.00;;;;;;5091448;28;20497;-74
2020/12/19 05:08:53;;;;;;;6.97;2.83;;;10.30;53.80;;;;;;5095520;28;20024;-75
2020/12/19 05:11:20;;;;;;;4.35;2.70;;;10.30;54.40;;;;;;5096301;28;20024;-74
2020/12/19 05:13:47;;;;;;;4.63;3.47;;;10.30;54.20;;;;;;5095033;28;20349;-74
2020/12/19 05:16:16;;;;;;;6.70;3.10;;;10.30;54.60;;;;;;5096006;28;20027;-74
2020/12/19 05:18:43;;;;;;;6.28;3.17;;;10.30;54.50;;;;;;5097807;28;20357;-74
2020/12/19 05:21:11;;;;;;;4.53;2.88;;;10.10;54.40;;;;;;5095351;28;20353;-74
2020/12/19 05:23:40;;;;;;;2.75;2.42;;;9.90;54.80;;;;;;5095510;28;20115;-74
2020/12/19 05:26:12;;;;;;;8.95;2.85;;;9.80;55.40;;;;;;5098171;28;20016;-74
2020/12/19 05:28:43;;;;;;;3.17;2.83;;;9.80;54.90;;;;;;5101485;28;20024;-74
2020/12/19 05:31:11;;;;;;;6.05;3.10;;;9.80;55.30;;;;;;5101890;28;20036;-74
2020/12/19 05:33:39;;;;;;;8.07;3.25;;;9.80;54.90;;;;;;5099875;28;20024;-74
2020/12/19 05:36:07;;;;;;;4.38;2.83;;;9.80;55.20;;;;;;5092238;28;20028;-73
2020/12/19 05:38:39;;;;;;;4.45;3.30;;;9.80;55.70;;;;;;5106293;28;20023;-75
2020/12/19 05:41:06;;;;;;;3.63;2.92;;;9.70;55.30;;;;;;5107581;28;20024;-76
2020/12/19 05:43:32;;;;;;;9.38;3.47;;;9.60;55.30;;;;;;5102030;28;20020;-74
2020/12/19 05:45:59;;;;;;;7.35;4.97;;;9.60;55.40;;;;;;5106854;28;20032;-74
2020/12/19 05:48:25;;;;;;;10.13;3.03;;;9.60;55.80;;;;;;5093022;28;20027;-74
2020/12/19 05:50:52;;;;;;;5.82;3.17;;;9.70;55.80;;;;;;5097709;28;20380;-74
2020/12/19 05:53:20;;;;;;;7.70;2.92;;;9.60;55.60;;;;;;5095780;28;20028;-73
2020/12/19 05:55:47;;;;;;;7.88;3.20;;;9.60;55.80;;;;;;5097659;28;20019;-74
2020/12/19 05:58:15;;;;;;;5.13;2.60;;;9.70;56.10;;;;;;5095661;28;20454;-73
2020/12/19 06:00:42;;;;;;;13.38;3.22;;;9.70;56.40;;;;;;5097561;28;20024;-74
2020/12/19 06:03:09;;;;;;;4.68;2.92;;;9.90;56.60;;;;;;5097379;28;20467;-73
2020/12/19 06:05:36;;;;;;;7.45;2.72;;;9.90;56.10;;;;;;5097541;28;20032;-74
2020/12/19 06:08:02;;;;;;;5.88;2.70;;;9.90;56.50;;;;;;5098858;28;20032;-74
2020/12/19 06:10:28;;;;;;;3.75;2.95;;;9.80;55.90;;;;;;5098319;28;20039;-75
2020/12/19 06:13:11;;;;;;;6.28;3.20;;;9.70;56.20;;;;;;5099593;28;20097;-73
2020/12/19 06:15:56;;;;;;;6.68;2.40;;;9.70;56.70;;;;;;5091978;28;20434;-75
2020/12/19 06:18:45;;;;;;;12.60;3.28;;;9.80;56.50;;;;;;5100330;28;20032;-74
2020/12/19 06:21:13;;;;;;;5.43;3.22;;;9.70;56.30;;;;;;5100086;28;20031;-74
2020/12/19 06:23:40;;;;;;;4.30;3.08;;;9.80;56.80;;;;;;5090741;28;20124;-74
2020/12/19 06:26:08;;;;;;;21.27;4.03;;;9.70;56.40;;;;;;5088805;28;20051;-74
2020/12/19 06:28:55;;;;;;;9.20;3.15;;;9.70;56.40;;;;;;5098524;28;20028;-74
2020/12/19 06:31:22;;;;;;;5.55;2.92;;;9.60;56.40;;;;;;5095488;28;20031;-74
2020/12/19 06:33:50;;;;;;;4.60;2.75;;;9.60;57.00;;;;;;5082821;28;20027;-74
2020/12/19 06:36:23;;;;;;;7.82;2.97;;;9.60;57.10;;;;;;5097503;28;20027;-74
2020/12/19 06:38:56;;;;;;;3.70;2.63;;;9.70;56.90;;;;;;5097072;28;20032;-74
2020/12/19 06:41:58;;;;;;;5.57;3.00;;;9.80;56.70;;;;;;5096648;28;20358;-75
2020/12/19 06:44:31;;;;;;;7.75;2.80;;;9.80;57.00;;;;;;5094394;28;20028;-74
2020/12/19 06:46:59;;;;;;;4.97;2.67;;;9.80;56.80;;;;;;5101128;28;20033;-75
2020/12/19 06:49:34;;;;;;;7.38;3.90;;;9.80;56.90;;;;;;5102737;28;20028;-76
2020/12/19 06:52:13;;;;;;;4.78;3.50;;;9.50;56.50;;;;;;5091194;28;20032;-75
2020/12/19 06:54:45;;;;;;;9.30;3.47;;;9.30;57.00;;;;;;5096351;28;20080;-75
2020/12/19 06:57:24;;;;;;;11.88;5.05;;;9.40;57.70;;;;;;5094184;28;20061;-75
2020/12/19 06:59:50;;;;;;;4.40;2.88;;;9.70;57.00;;;;;;5094528;28;20040;-75
2020/12/19 07:02:25;;;;;;;4.82;3.33;;;9.50;56.70;;;;;;5095498;28;20024;-74
2020/12/19 07:04:53;;;;;;;5.22;3.60;;;9.50;56.80;;;;;;5094973;28;20032;-74
2020/12/19 07:07:26;;;;;;;6.10;3.90;;;9.30;57.20;;;;;;5097620;28;20114;-74
2020/12/19 07:10:01;;;;;;;8.57;3.45;;;9.50;57.20;;;;;;5092209;28;20035;-74
2020/12/19 07:12:39;;;;;;;9.63;4.65;;;9.30;56.80;;;;;;5094596;28;20028;-75
2020/12/19 07:15:10;;;;;;;8.52;3.20;;;9.20;57.20;;;;;;5096500;28;20028;-74
2020/12/19 07:17:49;;;;;;;4.95;3.10;;;9.30;57.30;;;;;;5096696;28;20056;-74
2020/12/19 07:20:23;;;;;;;3.30;2.55;;;9.10;57.10;;;;;;5094796;28;20039;-75
2020/12/19 07:22:52;;;;;;;4.63;2.75;;;9.00;57.20;;;;;;5091912;28;20039;-75
2020/12/19 07:25:19;;;;;;;12.90;2.83;;;9.10;57.80;;;;;;5079747;28;20530;-74
2020/12/19 07:27:45;;;;;;;9.88;3.08;;;9.20;57.70;;;;;;5095283;28;20115;-74
2020/12/19 07:30:14;;;;;;;3.72;2.58;;;9.10;57.70;;;;;;5095558;28;20307;-74
2020/12/19 07:32:40;;;;;;;4.50;2.58;;;9.10;57.30;;;;;;5104970;28;20028;-74
2020/12/19 07:35:07;;;;;;;9.05;3.03;;;9.00;57.70;;;;;;5093212;28;20477;-74
2020/12/19 07:37:33;;;;;;;4.05;2.80;;;8.80;57.40;;;;;;5094572;28;20670;-74
2020/12/19 07:40:07;;;;;;;3.50;2.88;;;9.00;58.00;;;;;;5093432;28;20032;-74
2020/12/19 07:42:34;;;;;;;4.28;2.72;;;9.10;57.90;;;;;;5093813;28;20024;-74
2020/12/19 07:45:01;;;;;;;7.95;2.85;;;9.10;57.70;;;;;;5095329;28;20059;-74
2020/12/19 07:47:27;;;;;;;5.03;2.47;;;9.20;57.30;;;;;;5093606;28;20035;-74
2020/12/19 07:49:54;;;;;;;3.90;2.97;;;9.10;57.70;;;;;;5093270;28;20028;-75
2020/12/19 07:52:25;;;;;;;6.30;2.67;;;9.10;57.30;;;;;;5096755;28;20055;-74
2020/12/19 07:54:55;;;;;;;4.60;2.60;;;9.20;57.40;;;;;;5103080;28;20028;-77
2020/12/19 07:57:22;;;;;;;3.45;2.58;;;9.20;57.20;;;;;;5100138;28;20055;-75
2020/12/19 07:59:48;;;;;;;4.13;2.22;;;9.20;57.20;;;;;;5097372;28;20024;-75
2020/12/19 08:02:17;;;;;;;2.50;2.30;;;9.10;57.60;;;;;;5094109;28;20035;-75
2020/12/19 08:04:54;;;;;;;2.70;2.30;;;9.20;57.50;;;;;;5096049;28;20035;-74
2020/12/19 08:07:26;;;;;;;6.57;2.60;;;9.30;57.30;;;;;;5097140;28;20028;-75
2020/12/19 08:10:00;;;;;;;2.65;2.28;;;9.30;57.30;;;;;;5093133;28;20036;-74
2020/12/19 08:12:28;;;;;;;3.72;2.25;;;9.40;57.10;;;;;;5095740;28;20111;-74
2020/12/19 08:14:54;;;;;;;5.35;2.30;;;9.30;56.90;;;;;;5096140;28;20077;-75
2020/12/19 08:17:22;;;;;;;5.28;2.85;;;9.10;57.50;;;;;;5093812;28;20102;-75
2020/12/19 08:19:55;;;;;;;6.70;2.30;;;9.20;57.30;;;;;;5092374;28;20025;-75
2020/12/19 08:22:22;;;;;;;4.80;2.67;;;9.00;57.60;;;;;;5093810;28;20031;-75
2020/12/19 08:24:50;;;;;;;6.28;2.85;;;9.00;58.00;;;;;;5092925;28;20020;-74
2020/12/19 08:27:35;;;;;;;6.63;2.65;;;9.20;57.60;;;;;;5095783;28;20036;-74
2020/12/19 08:30:13;;;;;;;4.57;2.58;;;9.20;57.20;;;;;;5094071;28;20032;-74
2020/12/19 08:32:42;;;;;;;3.67;2.53;;;9.10;57.50;;;;;;5087809;28;20103;-75
2020/12/19 08:35:09;;;;;;;5.72;3.88;;;9.20;57.40;;;;;;5093448;28;20360;-76
2020/12/19 08:37:35;;;;;;;4.50;3.28;;;9.00;57.40;;;;;;5091086;28;20027;-75
2020/12/19 08:40:16;;;;;;;7.30;2.90;;;8.90;57.50;;;;;;5094540;28;20032;-75
2020/12/19 08:42:45;;;;;;;5.70;2.40;;;8.80;57.90;;;;;;5090764;28;20035;-75
2020/12/19 08:45:24;;;;;;;3.65;2.47;;;8.60;58.10;;;;;;5094571;28;20081;-75
2020/12/19 08:47:53;;;;;;;5.82;3.28;;;8.60;57.90;;;;;;5092773;28;20311;-75
2020/12/19 08:50:24;;;;;;;2.75;2.40;;;8.70;58.20;;;;;;5093545;28;20110;-75
2020/12/19 08:53:12;;;;;;;8.40;2.80;;;8.50;58.40;;;;;;5093215;28;20464;-75
2020/12/19 08:55:39;;;;;;;2.25;2.05;;;8.60;58.00;;;;;;5095586;28;20214;-75
2020/12/19 08:58:06;;;;;;;5.72;4.10;;;8.50;58.10;;;;;;5096033;28;20059;-75
2020/12/19 09:00:37;;;;;;;3.63;2.63;;;8.60;57.80;;;;;;5102434;28;20040;-75
2020/12/19 09:03:06;;;;;;;2.47;2.20;;;8.50;58.30;;;;;;5106993;28;20024;-76
2020/12/19 09:05:34;;;;;;;5.57;2.58;;;8.60;58.00;;;;;;5104810;28;20108;-75
2020/12/19 09:08:01;;;;;;;8.15;2.90;;;8.70;58.20;;;;;;5104007;28;20051;-76
2020/12/19 09:10:30;;;;;;;2.15;1.95;;;8.80;57.90;;;;;;5100266;28;20035;-75
2020/12/19 09:13:09;;;;;;;2.83;2.50;;;8.50;58.10;;;;;;5101131;28;20024;-75
2020/12/19 09:15:37;;;;;;;5.82;2.30;;;8.40;58.30;;;;;;5102356;28;20080;-74
2020/12/19 09:18:17;;;;;;;2.42;2.22;;;8.40;58.70;;;;;;5102469;28;20048;-75
2020/12/19 09:20:45;;;;;;;3.53;2.58;;;8.30;58.60;;;;;;5105056;28;20067;-78
2020/12/19 09:23:12;;;;;;;4.10;2.88;;;8.30;58.70;;;;;;5105135;28;20024;-74
2020/12/19 09:25:39;;;;;;;3.40;2.55;;;8.20;58.20;;;;;;5102827;28;20027;-74
2020/12/19 09:28:06;;;;;;;3.40;2.65;;;8.40;58.10;;;;;;5100118;28;20048;-75
2020/12/19 09:30:33;;;;;;;4.63;2.40;;;8.40;58.30;;;;;;5089461;28;20058;-75
2020/12/19 09:32:59;;;;;;;2.35;2.10;;;8.40;58.30;;;;;;5095626;28;20486;-75
2020/12/19 09:35:29;;;;;;;6.25;2.38;;;8.30;58.30;;;;;;5098503;28;20063;-75
2020/12/19 09:37:57;;;;;;;4.47;2.75;;;8.20;58.20;;;;;;5099168;28;20079;-75
2020/12/19 09:40:24;;;;;;;6.50;3.15;;;8.10;59.00;;;;;;5102158;28;20380;-76
2020/12/19 09:42:50;;;;;;;6.63;2.70;;;8.10;58.90;;;;;;5099583;28;20141;-75
2020/12/19 09:45:17;;;;;;;6.13;2.28;;;8.20;58.80;;;;;;5100304;28;20081;-75
2020/12/19 09:47:43;;;;;;;5.20;2.67;;;8.20;58.50;;;;;;5102708;28;20054;-75
2020/12/19 09:50:10;;;;;;;6.63;2.70;;;8.20;58.50;;;;;;5099148;28;20020;-75
2020/12/19 09:52:40;;;;;;;6.60;2.30;;;8.20;59.00;;;;;;5100770;28;20404;-75
2020/12/19 09:55:08;;;;;;;7.95;2.58;;;8.30;59.20;;;;;;5101715;28;20077;-75
2020/12/19 09:57:36;;;;;;;3.22;2.20;;;8.30;58.80;;;;;;5101809;28;20016;-75
2020/12/19 10:00:04;;;;;;;6.10;3.40;;;8.40;59.30;;;;;;5098271;28;20024;-75
2020/12/19 10:02:30;;;;;;;3.42;2.40;;;8.20;58.80;;;;;;5097084;28;20345;-75
2020/12/19 10:04:57;;;;;;;2.47;2.20;;;8.10;58.90;;;;;;5100042;28;20043;-75
2020/12/19 10:07:23;;;;;;;3.70;2.35;;;8.10;59.30;;;;;;5102166;28;20353;-75
2020/12/19 10:09:50;;;;;;;6.18;2.88;;;8.20;59.80;;;;;;5104831;28;20035;-76
2020/12/19 10:12:16;;;;;;;5.95;2.70;;;8.20;60.00;;;;;;5090242;28;20111;-75
2020/12/19 10:14:43;;;;;;;3.80;2.53;;;8.30;60.00;;;;;;5094821;28;20020;-75
2020/12/19 10:17:09;;;;;;;3.28;2.60;;;8.30;60.00;;;;;;5626629;22;20049;-72
2020/12/19 10:19:36;;;;;;;3.47;2.40;;;8.30;59.90;;;;;;5040550;28;20505;-72
2020/12/19 10:22:02;;;;;;;5.35;3.08;;;8.10;59.80;;;;;;5023316;28;20092;-71
2020/12/19 10:24:29;;;;;;;4.30;3.20;;;8.10;59.90;;;;;;5025737;28;20041;-72
2020/12/19 10:26:56;;;;;;;4.05;2.35;;;8.10;60.20;;;;;;5028673;28;20041;-72
2020/12/19 10:29:22;;;;;;;3.67;2.20;;;8.10;59.80;;;;;;5027536;28;20033;-72
2020/12/19 10:31:49;;;;;;;1.90;1.80;;;8.10;60.40;;;;;;5037106;28;20057;-72
2020/12/19 10:34:15;;;;;;;2.20;1.95;;;8.10;60.50;;;;;;5037011;28;20030;-72
2020/12/19 10:36:42;;;;;;;2.53;1.95;;;8.10;60.50;;;;;;5038438;28;20025;-74
2020/12/19 10:39:08;;;;;;;2.20;2.00;;;8.00;60.40;;;;;;5038043;28;20098;-73
2020/12/19 10:41:35;;;;;;;4.63;2.60;;;8.10;60.20;;;;;;5037571;28;20032;-71
2020/12/19 10:44:01;;;;;;;4.38;2.47;;;8.30;59.90;;;;;;5037017;28;20029;-72
2020/12/19 10:46:30;;;;;;;4.60;2.15;;;8.30;59.90;;;;;;5035400;28;20026;-72
2020/12/19 10:48:56;;;;;;;5.03;2.78;;;8.30;60.20;;;;;;5039991;28;20052;-76
2020/12/19 10:51:30;;;;;;;5.10;2.42;;;8.50;59.80;;;;;;5036729;28;20026;-73
2020/12/19 10:53:57;;;;;;;5.25;2.15;;;8.40;59.70;;;;;;5036255;28;20132;-73
2020/12/19 10:56:23;;;;;;;5.28;2.20;;;8.30;59.70;;;;;;5035749;28;20028;-73
2020/12/19 10:58:51;;;;;;;3.72;2.25;;;8.30;60.20;;;;;;5036361;28;20038;-72
2020/12/19 11:01:18;;;;;;;5.00;2.38;;;8.40;60.20;;;;;;5035121;28;20025;-72
2020/12/19 11:03:45;;;;;;;3.78;2.53;;;8.30;60.30;;;;;;5034617;28;20071;-72
2020/12/19 11:06:20;;;;;;;3.85;2.33;;;8.30;60.10;;;;;;5035321;28;20100;-72
2020/12/19 11:08:47;;;;;;;3.05;2.60;;;8.10;60.30;;;;;;5036043;28;20053;-73
2020/12/19 11:11:13;;;;;;;3.50;2.58;;;8.10;60.50;;;;;;5035876;28;20021;-72
2020/12/19 11:13:41;;;;;;;7.97;2.88;;;8.40;60.60;;;;;;5034629;28;20532;-72
2020/12/19 11:16:07;;;;;;;4.40;2.50;;;8.30;60.20;;;;;;5035205;28;20087;-72
2020/12/19 11:18:34;;;;;;;6.07;2.53;;;8.10;60.90;;;;;;5035847;28;20026;-72
2020/12/19 11:21:03;;;;;;;6.10;2.20;;;8.10;60.50;;;;;;5052100;28;20035;-72
2020/12/19 11:23:29;;;;;;;7.35;3.00;;;8.10;60.70;;;;;;5055098;28;20461;-71
2020/12/19 11:25:55;;;;;;;11.07;2.53;;;8.20;60.60;;;;;;5037622;28;20029;-72
2020/12/19 11:28:22;;;;;;;4.00;2.45;;;8.20;60.50;;;;;;5037815;28;20068;-71
2020/12/19 11:30:48;;;;;;;6.45;2.50;;;8.20;60.50;;;;;;5055411;28;20032;-72
2020/12/19 11:33:15;;;;;;;5.43;2.58;;;8.20;61.20;;;;;;5054851;28;20047;-72
2020/12/19 11:35:41;;;;;;;7.50;2.50;;;8.20;60.90;;;;;;5053885;28;20174;-72
2020/12/19 11:38:08;;;;;;;2.38;2.10;;;8.30;61.00;;;;;;5055654;28;20174;-72
2020/12/19 11:40:34;;;;;;;7.78;2.55;;;8.30;60.60;;;;;;5051153;28;20025;-72
2020/12/19 11:43:00;;;;;;;8.13;2.47;;;8.30;61.00;;;;;;5055240;28;20457;-72
2020/12/19 11:45:27;;;;;;;4.22;2.85;;;8.40;61.30;;;;;;5054023;28;20039;-71
2020/12/19 11:47:53;;;;;;;2.42;2.20;;;8.30;60.70;;;;;;5057760;28;20100;-72
2020/12/19 11:50:20;;;;;;;5.95;2.45;;;8.10;61.40;;;;;;5049006;28;20024;-72
2020/12/19 11:52:46;;;;;;;5.30;2.90;;;8.00;61.00;;;;;;5055198;28;20117;-71
2020/12/19 11:55:13;;;;;;;5.47;2.25;;;8.20;61.70;;;;;;5037812;28;20467;-72
2020/12/19 11:57:39;;;;;;;3.45;2.35;;;8.20;61.30;;;;;;5058543;28;20089;-73
2020/12/19 12:00:06;;;;;;;5.22;2.70;;;8.20;61.00;;;;;;5056159;28;20032;-72
2020/12/19 12:02:33;;;;;;;5.15;2.50;;;8.10;61.30;;;;;;5049874;28;20096;-72
2020/12/19 12:05:00;;;;;;;2.22;2.00;;;8.00;61.60;;;;;;5054040;28;20040;-72
2020/12/19 12:07:26;;;;;;;5.38;2.35;;;7.80;61.50;;;;;;5039910;28;20041;-72
2020/12/19 12:09:53;;;;;;;3.38;2.00;;;7.80;61.30;;;;;;5055055;28;20021;-72
2020/12/19 12:12:19;;;;;;;2.95;2.40;;;7.80;61.70;;;;;;5037820;28;20033;-72
2020/12/19 12:14:45;;;;;;;11.75;4.25;;;7.80;61.80;;;;;;5055218;28;20021;-72
2020/12/19 12:17:12;;;;;;;12.63;3.25;;;8.00;61.80;;;;;;5055659;28;20029;-72
2020/12/19 12:19:38;;;;;;;5.97;3.05;;;8.10;62.10;;;;;;5054722;28;20017;-72
2020/12/19 12:22:05;;;;;;;7.85;2.75;;;8.10;61.80;;;;;;5042605;28;20029;-72
2020/12/19 12:24:32;;;;;;;3.72;2.08;;;8.10;61.70;;;;;;5054890;28;20366;-73
2020/12/19 12:26:58;;;;;;;5.75;2.75;;;8.20;62.20;;;;;;5037337;28;20050;-72
2020/12/19 12:29:25;;;;;;;6.25;2.88;;;8.10;61.70;;;;;;5054503;28;20016;-72
2020/12/19 12:31:51;;;;;;;10.60;2.97;;;8.00;62.00;;;;;;5043149;28;20098;-72
2020/12/19 12:34:18;;;;;;;6.15;2.72;;;8.00;62.20;;;;;;5054750;28;20120;-72
2020/12/19 12:36:45;;;;;;;4.72;2.40;;;8.10;62.40;;;;;;5054587;28;20048;-71
2020/12/19 12:39:12;;;;;;;10.85;2.40;;;8.00;62.40;;;;;;5054239;28;20421;-72
2020/12/19 12:41:42;;;;;;;5.70;2.55;;;8.00;62.80;;;;;;5046127;28;20397;-71
2020/12/19 12:44:08;;;;;;;4.63;2.60;;;8.00;62.90;;;;;;5054192;28;20446;-72
2020/12/19 12:46:34;;;;;;;6.85;2.95;;;7.90;62.70;;;;;;5054966;28;20013;-72
2020/12/19 12:49:01;;;;;;;5.68;2.40;;;7.80;62.90;;;;;;5054739;28;20091;-71
2020/12/19 12:51:27;;;;;;;3.15;2.70;;;7.90;62.90;;;;;;5044415;28;20034;-72
2020/12/19 12:53:54;;;;;;;7.13;3.17;;;8.00;63.00;;;;;;5032595;28;20086;-72
2020/12/19 12:56:24;;;;;;;11.15;2.40;;;8.00;62.80;;;;;;5055386;28;20017;-71
2020/12/19 12:58:52;;;;;;;6.18;2.78;;;8.10;63.10;;;;;;5036862;28;20017;-71